Time;durP1;ratioP1;P1;durP2;ratioP2;P2;SDS_P1;SDS_P2;PMS_P1;PMS_P2;Temp;Humidity;BMP_temperature;BMP_pressure;BME280_temperature;BME280_humidity;BME280_pressure;Samples;Min_cycle;Max_cycle;Signal;HPM_P1;HPM_P2
2022/10/09 00:01:03;;;;;;;;;;;11.70;99.90;;;;;;5094396;28;19908;-76
2022/10/09 00:03:29;;;;;;;;;;;11.70;99.90;;;;;;5095123;28;19908;-77
2022/10/09 00:05:54;;;;;;;;;;;11.80;99.90;;;;;;5094380;28;19909;-77
2022/10/09 00:08:20;;;;;;;;;;;11.80;99.90;;;;;;5094956;28;19908;-77
2022/10/09 00:10:45;;;;;;;;;;;11.80;99.90;;;;;;5094339;28;19965;-76
2022/10/09 00:13:11;;;;;;;;;;;11.90;99.90;;;;;;5094692;28;19919;-76
2022/10/09 00:15:40;;;;;;;;;;;11.90;99.90;;;;;;5093944;28;19908;-76
2022/10/09 00:18:07;;;;;;;;;;;11.90;99.90;;;;;;5093349;28;19915;-76
2022/10/09 00:20:39;;;;;;;;;;;12.00;99.90;;;;;;5094290;28;20250;-75
2022/10/09 00:23:05;;;;;;;;;;;12.10;99.90;;;;;;5094670;28;19974;-75
2022/10/09 00:25:31;;;;;;;;;;;12.10;99.90;;;;;;5094694;28;20357;-75
2022/10/09 00:27:57;;;;;;;;;;;12.10;99.90;;;;;;5094144;28;19908;-75
2022/10/09 00:30:22;;;;;;;;;;;12.10;99.90;;;;;;5094247;28;20281;-76
2022/10/09 00:32:48;;;;;;;;;;;12.10;99.90;;;;;;5093964;28;19916;-75
2022/10/09 00:35:13;;;;;;;;;;;12.10;99.90;;;;;;5094612;28;19914;-76
2022/10/09 00:37:39;;;;;;;;;;;12.10;99.90;;;;;;5093858;28;19908;-76
2022/10/09 00:40:05;;;;;;;;;;;12.10;99.90;;;;;;5092913;28;19915;-75
2022/10/09 00:42:30;;;;;;;;;;;12.10;99.90;;;;;;5094440;28;19912;-76
2022/10/09 00:44:58;;;;;;;;;;;12.10;99.90;;;;;;5093284;28;19928;-74
2022/10/09 00:47:27;;;;;;;;;;;12.10;99.90;;;;;;5093094;28;20362;-75
2022/10/09 00:49:55;;;;;;;;;;;12.10;99.90;;;;;;5093507;28;19983;-74
2022/10/09 00:52:22;;;;;;;;;;;12.10;99.90;;;;;;5092704;28;19913;-75
2022/10/09 00:54:48;;;;;;;;;;;12.10;99.90;;;;;;5093329;28;19970;-76
2022/10/09 00:57:14;;;;;;;;;;;12.10;99.90;;;;;;5094143;28;20356;-76
2022/10/09 00:59:40;;;;;;;;;;;12.10;99.90;;;;;;5093583;28;20234;-75
2022/10/09 01:02:06;;;;;;;;;;;12.10;99.90;;;;;;5094361;28;19914;-76
2022/10/09 01:04:31;;;;;;;;;;;12.00;99.90;;;;;;5093918;28;19908;-77
2022/10/09 01:07:15;;;;;;;;;;;12.00;99.90;;;;;;5093112;28;20134;-76
2022/10/09 01:09:45;;;;;;;;;;;12.00;99.90;;;;;;5092930;28;19916;-75
2022/10/09 01:12:11;;;;;;;;;;;12.00;99.90;;;;;;5094160;28;19965;-76
2022/10/09 01:15:03;;;;;;;;;;;11.90;99.90;;;;;;5093179;28;20398;-74
2022/10/09 01:17:44;;;;;;;;;;;11.80;99.90;;;;;;5084793;28;19908;-77
2022/10/09 01:20:23;;;;;;;;;;;11.80;99.90;;;;;;5093798;28;19966;-77
2022/10/09 01:22:55;;;;;;;;;;;11.70;99.90;;;;;;5092895;28;20276;-75
2022/10/09 01:25:34;;;;;;;;;;;11.60;99.90;;;;;;5093860;28;20372;-77
2022/10/09 01:28:01;;;;;;;;;;;11.60;99.90;;;;;;5091541;28;20338;-75
2022/10/09 01:30:27;;;;;;;;;;;11.50;99.90;;;;;;5093217;28;19916;-75
2022/10/09 01:32:53;;;;;;;;;;;11.50;99.90;;;;;;5092622;28;20268;-75
2022/10/09 01:35:20;;;;;;;;;;;11.50;99.90;;;;;;5093586;28;20315;-75
2022/10/09 01:37:46;;;;;;;;;;;11.60;99.90;;;;;;5092696;28;19908;-76
2022/10/09 01:40:13;;;;;;;;;;;11.60;99.90;;;;;;5093557;28;19915;-77
2022/10/09 01:42:39;;;;;;;;;;;11.60;99.90;;;;;;5093543;28;19953;-75
2022/10/09 01:45:05;;;;;;;;;;;11.70;99.90;;;;;;5094426;28;19920;-76
2022/10/09 01:47:30;;;;;;;;;;;11.80;99.90;;;;;;5093407;28;19916;-77
2022/10/09 01:49:56;;;;;;;;;;;11.80;99.90;;;;;;5091308;28;19955;-76
2022/10/09 01:52:40;;;;;;;;;;;11.80;99.90;;;;;;5092815;28;20347;-77
2022/10/09 01:55:12;;;;;;;;;;;12.00;99.90;;;;;;5093224;28;20365;-75
2022/10/09 01:57:37;;;;;;;;;;;12.10;99.90;;;;;;5093161;28;19909;-76
2022/10/09 02:00:06;;;;;;;;;;;12.10;99.90;;;;;;5091190;28;19914;-76
2022/10/09 02:02:32;;;;;;;;;;;12.10;99.90;;;;;;5092847;28;20418;-76
2022/10/09 02:04:58;;;;;;;;;;;12.20;99.90;;;;;;5092219;28;19919;-76
2022/10/09 02:07:24;;;;;;;;;;;12.30;99.90;;;;;;5093421;28;19908;-76
2022/10/09 02:09:49;;;;;;;;;;;12.30;99.90;;;;;;5092336;28;19958;-74
2022/10/09 02:12:16;;;;;;;;;;;12.30;99.90;;;;;;5092745;28;19912;-75
2022/10/09 02:14:42;;;;;;;;;;;12.20;99.90;;;;;;5092705;28;19915;-75
2022/10/09 02:17:10;;;;;;;;;;;12.20;99.90;;;;;;5092758;28;20288;-76
2022/10/09 02:19:41;;;;;;;;;;;12.30;99.90;;;;;;5092490;28;20428;-76
2022/10/09 02:22:07;;;;;;;;;;;12.30;99.90;;;;;;5092934;28;19918;-75
2022/10/09 02:24:33;;;;;;;;;;;12.30;99.90;;;;;;5092703;28;20284;-76
2022/10/09 02:26:59;;;;;;;;;;;12.30;99.90;;;;;;5092285;28;20349;-76
2022/10/09 02:29:25;;;;;;;;;;;12.30;99.90;;;;;;5092372;28;19942;-76
2022/10/09 02:31:51;;;;;;;;;;;12.30;99.90;;;;;;5092246;28;19916;-76
2022/10/09 02:34:18;;;;;;;;;;;12.30;99.90;;;;;;5092801;28;19908;-76
2022/10/09 02:36:44;;;;;;;;;;;12.30;99.90;;;;;;5092319;28;19908;-74
2022/10/09 02:39:10;;;;;;;;;;;12.30;99.90;;;;;;5092440;28;20006;-77
2022/10/09 02:41:36;;;;;;;;;;;12.30;99.90;;;;;;5092231;28;20329;-76
2022/10/09 02:44:02;;;;;;;;;;;12.30;99.90;;;;;;5090449;28;19927;-76
2022/10/09 02:46:28;;;;;;;;;;;12.20;99.90;;;;;;5092660;28;20003;-76
2022/10/09 02:48:53;;;;;;;;;;;12.30;99.90;;;;;;5092139;28;19943;-75
2022/10/09 02:51:19;;;;;;;;;;;12.20;99.90;;;;;;5092283;28;19930;-75
2022/10/09 02:53:45;;;;;;;;;;;12.30;99.90;;;;;;5092059;28;19916;-74
2022/10/09 02:56:10;;;;;;;;;;;12.30;99.90;;;;;;5091185;28;19908;-76
2022/10/09 02:58:36;;;;;;;;;;;12.40;99.90;;;;;;5092682;28;19909;-76
2022/10/09 03:01:03;;;;;;;;;;;12.50;99.90;;;;;;5092146;28;19909;-76
2022/10/09 03:03:29;;;;;;;;;;;12.50;99.90;;;;;;5092492;28;19916;-76
2022/10/09 03:05:59;;;;;;;;;;;12.50;99.90;;;;;;5091854;28;19909;-76
2022/10/09 03:08:24;;;;;;;;;;;12.60;99.90;;;;;;5092097;28;20272;-76
2022/10/09 03:10:50;;;;;;;;;;;12.60;99.90;;;;;;5091641;28;20015;-76
2022/10/09 03:13:15;;;;;;;;;;;12.70;99.90;;;;;;5092489;28;20060;-76
2022/10/09 03:15:41;;;;;;;;;;;12.70;99.90;;;;;;5093851;28;19908;-76
2022/10/09 03:18:06;;;;;;;;;;;12.70;99.90;;;;;;5095304;28;19916;-76
2022/10/09 03:20:32;;;;;;;;;;;12.70;99.90;;;;;;5095978;28;19908;-76
2022/10/09 03:22:57;;;;;;;;;;;12.70;99.90;;;;;;5094066;28;19919;-76
2022/10/09 03:25:24;;;;;;;;;;;12.60;99.90;;;;;;5096108;28;19958;-76
2022/10/09 03:27:49;;;;;;;;;;;12.70;99.90;;;;;;5095314;28;20010;-75
2022/10/09 03:30:15;;;;;;;;;;;12.70;99.90;;;;;;5095573;28;20003;-75
2022/10/09 03:32:41;;;;;;;;;;;12.70;99.90;;;;;;5095741;28;20389;-77
2022/10/09 03:35:07;;;;;;;;;;;12.70;99.90;;;;;;5095180;28;20400;-76
2022/10/09 03:37:33;;;;;;;;;;;12.70;99.90;;;;;;5095381;28;20350;-76
2022/10/09 03:39:58;;;;;;;;;;;12.70;99.90;;;;;;5094890;28;19908;-77
2022/10/09 03:42:24;;;;;;;;;;;12.70;99.90;;;;;;5095419;28;19912;-77
2022/10/09 03:44:50;;;;;;;;;;;12.80;99.90;;;;;;5094584;28;19920;-76
2022/10/09 03:47:15;;;;;;;;;;;12.80;99.90;;;;;;5095388;28;19931;-77
2022/10/09 03:49:41;;;;;;;;;;;12.80;99.90;;;;;;5095518;28;20403;-77
2022/10/09 03:52:07;;;;;;;;;;;12.80;99.90;;;;;;5094868;28;20007;-75
2022/10/09 03:54:32;;;;;;;;;;;12.80;99.90;;;;;;5095347;28;20019;-75
2022/10/09 03:56:58;;;;;;;;;;;12.80;99.90;;;;;;5094716;28;19912;-74
2022/10/09 03:59:23;;;;;;;;;;;12.70;99.90;;;;;;5094936;28;19923;-76
2022/10/09 04:01:49;;;;;;;;;;;12.70;99.90;;;;;;5094630;28;19908;-74
2022/10/09 04:04:15;;;;;;;;;;;12.50;99.90;;;;;;5095042;28;19908;-76
2022/10/09 04:06:40;;;;;;;;;;;12.50;99.90;;;;;;5094743;28;19915;-76
2022/10/09 04:09:06;;;;;;;;;;;12.30;99.90;;;;;;5094405;28;19920;-76
2022/10/09 04:11:31;;;;;;;;;;;12.30;99.90;;;;;;5095014;28;19912;-76
2022/10/09 04:13:57;;;;;;;;;;;12.30;99.90;;;;;;5094337;28;19908;-75
2022/10/09 04:16:22;;;;;;;;;;;12.20;99.90;;;;;;5094906;28;19908;-75
2022/10/09 04:18:48;;;;;;;;;;;12.20;99.90;;;;;;5094904;28;19919;-77
2022/10/09 04:21:13;;;;;;;;;;;12.30;99.90;;;;;;5094371;28;20258;-76
2022/10/09 04:23:39;;;;;;;;;;;12.30;99.90;;;;;;5094760;28;20003;-76
2022/10/09 04:26:05;;;;;;;;;;;12.40;99.90;;;;;;5093750;28;19908;-76
2022/10/09 04:28:31;;;;;;;;;;;12.40;99.90;;;;;;5094460;28;19908;-76
2022/10/09 04:30:57;;;;;;;;;;;12.40;99.90;;;;;;5093602;28;19920;-75
2022/10/09 04:33:23;;;;;;;;;;;12.40;99.90;;;;;;5094322;28;20384;-76
2022/10/09 04:35:49;;;;;;;;;;;12.40;99.90;;;;;;5094264;28;19908;-77
2022/10/09 04:38:15;;;;;;;;;;;12.40;99.90;;;;;;5093827;28;19908;-77
2022/10/09 04:40:41;;;;;;;;;;;12.50;99.90;;;;;;5094473;28;20273;-77
2022/10/09 04:43:06;;;;;;;;;;;12.60;99.90;;;;;;5093679;28;20315;-77
2022/10/09 04:45:32;;;;;;;;;;;12.60;99.90;;;;;;5094169;28;19936;-76
2022/10/09 04:47:58;;;;;;;;;;;12.60;99.90;;;;;;5093734;28;19912;-77
2022/10/09 04:50:24;;;;;;;;;;;12.60;99.90;;;;;;5094164;28;19978;-77
2022/10/09 04:52:49;;;;;;;;;;;12.70;99.90;;;;;;5094012;28;19935;-76
2022/10/09 04:55:15;;;;;;;;;;;12.70;99.90;;;;;;5093851;28;20353;-76
2022/10/09 04:57:40;;;;;;;;;;;12.70;99.90;;;;;;5094260;28;19962;-76
2022/10/09 05:00:06;;;;;;;;;;;12.70;99.90;;;;;;5093273;28;20326;-75
2022/10/09 05:02:32;;;;;;;;;;;12.60;99.90;;;;;;5094034;28;19908;-75
2022/10/09 05:04:57;;;;;;;;;;;12.70;99.90;;;;;;5093206;28;19916;-76
2022/10/09 05:07:23;;;;;;;;;;;12.70;99.90;;;;;;5093675;28;19908;-76
2022/10/09 05:09:49;;;;;;;;;;;12.70;99.90;;;;;;5093559;28;19912;-76
2022/10/09 05:12:14;;;;;;;;;;;12.70;99.90;;;;;;5093173;28;19923;-75
2022/10/09 05:14:40;;;;;;;;;;;12.70;99.90;;;;;;5092475;28;20333;-76
2022/10/09 05:17:06;;;;;;;;;;;12.70;99.90;;;;;;5093150;28;19912;-75
2022/10/09 05:19:31;;;;;;;;;;;12.70;99.90;;;;;;5093236;28;19908;-76
2022/10/09 05:21:58;;;;;;;;;;;12.70;99.90;;;;;;5091750;28;19963;-76
2022/10/09 05:24:23;;;;;;;;;;;12.70;99.90;;;;;;5093212;28;19944;-76
2022/10/09 05:26:49;;;;;;;;;;;12.70;99.90;;;;;;5093623;28;20365;-76
2022/10/09 05:29:15;;;;;;;;;;;12.70;99.90;;;;;;5091874;28;19912;-77
2022/10/09 05:31:42;;;;;;;;;;;12.60;99.90;;;;;;5093206;28;19919;-76
2022/10/09 05:34:08;;;;;;;;;;;12.60;99.90;;;;;;5092883;28;19957;-76
2022/10/09 05:36:33;;;;;;;;;;;12.60;99.90;;;;;;5093390;28;19912;-76
2022/10/09 05:39:00;;;;;;;;;;;12.70;99.90;;;;;;5090968;28;19910;-75
2022/10/09 05:41:25;;;;;;;;;;;12.70;99.90;;;;;;5093336;28;19908;-76
2022/10/09 05:43:51;;;;;;;;;;;12.80;99.90;;;;;;5092914;28;19927;-76
2022/10/09 05:46:18;;;;;;;;;;;12.80;99.90;;;;;;5092283;28;19908;-76
2022/10/09 05:48:45;;;;;;;;;;;12.80;99.90;;;;;;5093212;28;19908;-77
2022/10/09 05:51:12;;;;;;;;;;;12.90;99.90;;;;;;5092321;28;20436;-77
2022/10/09 05:53:39;;;;;;;;;;;12.80;99.90;;;;;;5092852;28;20365;-77
2022/10/09 05:56:18;;;;;;;;;;;12.90;99.90;;;;;;5092568;28;19915;-76
2022/10/09 05:58:51;;;;;;;;;;;12.90;99.90;;;;;;5092764;28;19961;-76
2022/10/09 06:01:18;;;;;;;;;;;12.90;99.90;;;;;;5092213;28;19965;-76
2022/10/09 06:03:47;;;;;;;;;;;12.80;99.90;;;;;;5092827;28;19961;-77
2022/10/09 06:06:12;;;;;;;;;;;12.80;99.90;;;;;;5092348;28;19942;-77
2022/10/09 06:08:38;;;;;;;;;;;12.70;99.90;;;;;;5092726;28;19939;-77
2022/10/09 06:11:11;;;;;;;;;;;12.60;99.90;;;;;;5092435;28;19912;-75
2022/10/09 06:13:36;;;;;;;;;;;12.70;99.90;;;;;;5093287;28;19958;-76
2022/10/09 06:16:02;;;;;;;;;;;12.60;99.90;;;;;;5091946;28;19983;-75
2022/10/09 06:18:28;;;;;;;;;;;12.70;99.90;;;;;;5092470;28;19923;-76
2022/10/09 06:20:54;;;;;;;;;;;12.70;99.90;;;;;;5092870;28;19953;-77
2022/10/09 06:23:20;;;;;;;;;;;12.70;99.90;;;;;;5092336;28;19914;-77
2022/10/09 06:25:56;;;;;;;;;;;12.70;99.90;;;;;;5092699;28;19908;-77
2022/10/09 06:28:21;;;;;;;;;;;12.80;99.90;;;;;;5092367;28;19934;-76
2022/10/09 06:30:47;;;;;;;;;;;12.80;99.90;;;;;;5091311;28;20006;-77
2022/10/09 06:33:13;;;;;;;;;;;12.80;99.90;;;;;;5092149;28;19912;-77
2022/10/09 06:35:38;;;;;;;;;;;12.80;99.90;;;;;;5092697;28;19908;-77
2022/10/09 06:38:04;;;;;;;;;;;12.90;99.90;;;;;;5091976;28;19908;-75
2022/10/09 06:40:32;;;;;;;;;;;12.80;99.90;;;;;;5092402;28;20360;-76
2022/10/09 06:42:59;;;;;;;;;;;12.80;99.90;;;;;;5092235;28;19957;-75
2022/10/09 06:45:24;;;;;;;;;;;12.80;99.90;;;;;;5092387;28;20002;-76
2022/10/09 06:47:50;;;;;;;;;;;12.80;99.90;;;;;;5092558;28;20003;-76
2022/10/09 06:50:15;;;;;;;;;;;12.80;99.90;;;;;;5093689;28;19911;-76
2022/10/09 06:52:41;;;;;;;;;;;12.80;99.90;;;;;;5096110;28;20353;-77
2022/10/09 06:55:07;;;;;;;;;;;12.90;99.90;;;;;;5095263;28;20006;-75
2022/10/09 06:57:32;;;;;;;;;;;12.90;99.90;;;;;;5096293;28;19912;-77
2022/10/09 06:59:58;;;;;;;;;;;12.90;99.90;;;;;;5095835;28;19986;-76
2022/10/09 07:02:23;;;;;;;;;;;12.90;99.90;;;;;;5095274;28;19915;-76
2022/10/09 07:04:49;;;;;;;;;;;12.90;99.90;;;;;;5096109;28;19961;-76
2022/10/09 07:07:14;;;;;;;;;;;12.90;99.90;;;;;;5095645;28;20432;-76
2022/10/09 07:09:40;;;;;;;;;;;12.90;99.90;;;;;;5096052;28;19912;-76
2022/10/09 07:12:05;;;;;;;;;;;12.90;99.90;;;;;;5095306;28;19965;-76
2022/10/09 07:14:31;;;;;;;;;;;12.90;99.90;;;;;;5096106;28;19942;-77
2022/10/09 07:16:57;;;;;;;;;;;12.80;99.90;;;;;;5095669;28;19915;-76
2022/10/09 07:19:22;;;;;;;;;;;12.80;99.90;;;;;;5095208;28;19904;-74
2022/10/09 07:21:48;;;;;;;;;;;12.80;99.90;;;;;;5095644;28;19912;-76
2022/10/09 07:24:15;;;;;;;;;;;12.80;99.90;;;;;;5094924;28;19908;-75
2022/10/09 07:26:42;;;;;;;;;;;12.80;99.90;;;;;;5095837;28;19999;-75
2022/10/09 07:29:09;;;;;;;;;;;12.80;99.90;;;;;;5095099;28;19912;-76
2022/10/09 07:31:34;;;;;;;;;;;12.80;99.90;;;;;;5095333;28;19915;-76
2022/10/09 07:34:00;;;;;;;;;;;12.80;99.90;;;;;;5095497;28;19909;-76
2022/10/09 07:36:26;;;;;;;;;;;12.80;99.90;;;;;;5093522;28;19909;-77
2022/10/09 07:38:52;;;;;;;;;;;12.90;99.90;;;;;;5095987;28;19998;-75
2022/10/09 07:41:19;;;;;;;;;;;12.90;99.90;;;;;;5094669;28;19958;-75
2022/10/09 07:43:44;;;;;;;;;;;12.90;99.90;;;;;;5095404;28;19920;-77
2022/10/09 07:46:11;;;;;;;;;;;12.90;99.90;;;;;;5094908;28;20402;-76
2022/10/09 07:48:37;;;;;;;;;;;12.90;99.90;;;;;;5095172;28;19995;-76
2022/10/09 07:51:10;;;;;;;;;;;13.00;99.90;;;;;;5094998;28;20078;-74
2022/10/09 07:53:36;;;;;;;;;;;13.00;99.90;;;;;;5095372;28;19912;-76
2022/10/09 07:56:03;;;;;;;;;;;13.00;99.90;;;;;;5095196;28;19914;-76
2022/10/09 07:58:29;;;;;;;;;;;13.00;99.90;;;;;;5094608;28;20350;-76
2022/10/09 08:00:54;;;;;;;;;;;13.10;99.90;;;;;;5094824;28;19916;-77
2022/10/09 08:03:20;;;;;;;;;;;13.20;99.90;;;;;;5093962;28;19919;-77
2022/10/09 08:05:55;;;;;;;;;;;13.20;99.90;;;;;;5093041;28;19915;-77
2022/10/09 08:08:20;;;;;;;;;;;13.30;99.90;;;;;;5093810;28;19962;-77
2022/10/09 08:10:46;;;;;;;;;;;13.40;99.90;;;;;;5093835;28;19912;-75
2022/10/09 08:13:12;;;;;;;;;;;13.50;99.90;;;;;;5093440;28;19935;-74
2022/10/09 08:15:41;;;;;;;;;;;13.50;99.90;;;;;;5094671;28;20188;-75
2022/10/09 08:18:07;;;;;;;;;;;13.50;99.90;;;;;;5094179;28;20458;-75
2022/10/09 08:20:33;;;;;;;;;;;13.60;99.90;;;;;;5094040;28;19908;-75
2022/10/09 08:22:59;;;;;;;;;;;13.60;99.90;;;;;;5094641;28;19908;-75
2022/10/09 08:25:24;;;;;;;;;;;13.60;99.90;;;;;;5094581;28;19914;-76
2022/10/09 08:27:53;;;;;;;;;;;13.60;99.90;;;;;;5094607;28;19977;-75
2022/10/09 08:30:18;;;;;;;;;;;13.70;99.90;;;;;;5093622;28;20279;-75
2022/10/09 08:32:44;;;;;;;;;;;13.70;99.90;;;;;;5094841;28;19912;-75
2022/10/09 08:35:10;;;;;;;;;;;13.70;99.90;;;;;;5093366;28;19908;-75
2022/10/09 08:37:35;;;;;;;;;;;13.70;99.90;;;;;;5093928;28;20269;-76
2022/10/09 08:40:02;;;;;;;;;;;13.70;99.90;;;;;;5093955;28;19908;-76
2022/10/09 08:42:31;;;;;;;;;;;13.60;99.90;;;;;;5093732;28;20538;-76
2022/10/09 08:44:56;;;;;;;;;;;13.60;99.90;;;;;;5093961;28;19920;-76
2022/10/09 08:47:31;;;;;;;;;;;13.60;99.90;;;;;;5093610;28;20257;-76
2022/10/09 08:50:00;;;;;;;;;;;13.60;99.90;;;;;;5092896;28;19947;-76
2022/10/09 08:52:36;;;;;;;;;;;13.60;99.90;;;;;;5093582;28;19943;-76
2022/10/09 08:55:20;;;;;;;;;;;13.60;99.90;;;;;;5094122;28;20022;-75
2022/10/09 08:57:48;;;;;;;;;;;13.70;99.90;;;;;;5092960;28;19916;-75
2022/10/09 09:00:21;;;;;;;;;;;13.60;99.90;;;;;;5092142;28;19915;-75
2022/10/09 09:02:52;;;;;;;;;;;13.70;99.90;;;;;;5093902;28;19961;-75
2022/10/09 09:05:23;;;;;;;;;;;13.70;99.90;;;;;;5093187;28;20250;-75
2022/10/09 09:07:54;;;;;;;;;;;13.70;99.90;;;;;;5094185;28;19995;-76
2022/10/09 09:10:19;;;;;;;;;;;13.80;99.90;;;;;;5093192;28;19912;-75
2022/10/09 09:12:57;;;;;;;;;;;13.80;99.90;;;;;;5092892;28;19919;-75
2022/10/09 09:15:24;;;;;;;;;;;13.80;99.90;;;;;;5093189;28;20006;-75
2022/10/09 09:18:15;;;;;;;;;;;13.80;99.90;;;;;;5093531;28;20000;-76
2022/10/09 09:20:54;;;;;;;;;;;13.80;99.90;;;;;;5084303;28;20383;-76
2022/10/09 09:23:28;;;;;;;;;;;13.80;99.90;;;;;;5092685;28;19915;-75
2022/10/09 09:25:54;;;;;;;;;;;13.80;99.90;;;;;;5092792;28;20006;-76
2022/10/09 09:28:25;;;;;;;;;;;13.90;99.90;;;;;;5092444;28;19908;-75
2022/10/09 09:30:54;;;;;;;;;;;14.00;99.90;;;;;;5092153;28;19912;-75
2022/10/09 09:33:24;;;;;;;;;;;14.00;99.90;;;;;;5092294;28;19919;-77
2022/10/09 09:35:49;;;;;;;;;;;13.90;99.90;;;;;;5092258;28;19947;-76
2022/10/09 09:38:15;;;;;;;;;;;14.00;99.90;;;;;;5092745;28;19923;-74
2022/10/09 09:40:41;;;;;;;;;;;14.00;99.90;;;;;;5093001;28;20277;-75
2022/10/09 09:43:18;;;;;;;;;;;14.10;99.90;;;;;;5092910;28;19908;-75
2022/10/09 09:45:44;;;;;;;;;;;14.10;99.90;;;;;;5093221;28;19947;-76
2022/10/09 09:48:13;;;;;;;;;;;14.10;99.90;;;;;;5093098;28;19923;-75
2022/10/09 09:50:41;;;;;;;;;;;14.20;99.90;;;;;;5092843;28;19961;-76
2022/10/09 09:53:13;;;;;;;;;;;14.20;99.90;;;;;;5093022;28;19955;-75
2022/10/09 09:55:38;;;;;;;;;;;14.30;99.90;;;;;;5092674;28;20361;-75
2022/10/09 09:58:05;;;;;;;;;;;14.30;99.90;;;;;;5092749;28;19909;-75
2022/10/09 10:00:31;;;;;;;;;;;14.30;99.90;;;;;;5092397;28;20371;-75
2022/10/09 10:03:13;;;;;;;;;;;14.20;99.90;;;;;;5093021;28;19908;-76
2022/10/09 10:05:39;;;;;;;;;;;14.30;99.90;;;;;;5092722;28;19914;-75
2022/10/09 10:08:12;;;;;;;;;;;14.30;99.90;;;;;;5093279;28;20023;-76
2022/10/09 10:10:42;;;;;;;;;;;14.30;99.90;;;;;;5092416;28;19912;-75
2022/10/09 10:13:14;;;;;;;;;;;14.40;99.90;;;;;;5092988;28;19939;-76
2022/10/09 10:15:46;;;;;;;;;;;14.40;99.90;;;;;;5092889;28;19915;-76
2022/10/09 10:18:14;;;;;;;;;;;14.40;99.90;;;;;;5093050;28;19908;-76
2022/10/09 10:20:56;;;;;;;;;;;14.50;99.90;;;;;;5093297;28;19908;-76
2022/10/09 10:23:21;;;;;;;;;;;14.50;99.90;;;;;;5090828;28;19914;-75
2022/10/09 10:25:47;;;;;;;;;;;14.60;99.90;;;;;;5096036;28;19999;-76
2022/10/09 10:28:16;;;;;;;;;;;14.60;99.90;;;;;;5095701;28;20365;-76
2022/10/09 10:30:42;;;;;;;;;;;14.70;99.90;;;;;;5096574;28;19912;-75
2022/10/09 10:33:21;;;;;;;;;;;14.70;99.90;;;;;;5096808;28;19923;-76
2022/10/09 10:35:51;;;;;;;;;;;14.80;99.90;;;;;;5096593;28;19991;-75
2022/10/09 10:38:21;;;;;;;;;;;14.90;99.90;;;;;;5096277;28;19975;-75
2022/10/09 10:41:06;;;;;;;;;;;14.90;99.90;;;;;;5096654;28;19916;-76
2022/10/09 10:43:34;;;;;;;;;;;14.90;99.90;;;;;;5095525;28;19924;-76
2022/10/09 10:46:03;;;;;;;;;;;15.00;99.90;;;;;;5096537;28;19912;-76
2022/10/09 10:48:35;;;;;;;;;;;15.00;99.90;;;;;;5096239;28;19909;-74
2022/10/09 10:51:00;;;;;;;;;;;15.10;99.90;;;;;;5096158;28;19965;-75
2022/10/09 10:53:52;;;;;;;;;;;15.20;99.90;;;;;;5095604;28;20315;-75
2022/10/09 10:56:27;;;;;;;;;;;15.30;99.90;;;;;;5079453;28;20365;-75
2022/10/09 10:58:55;;;;;;;;;;;15.30;99.90;;;;;;5096320;28;19908;-75
2022/10/09 11:01:27;;;;;;;;;;;15.40;99.90;;;;;;5095721;28;19908;-76
2022/10/09 11:04:17;;;;;;;;;;;15.40;99.90;;;;;;5096148;28;19953;-77
2022/10/09 11:06:50;;;;;;;;;;;15.50;99.90;;;;;;5095955;28;19944;-77
2022/10/09 11:09:18;;;;;;;;;;;15.50;99.90;;;;;;5096300;28;19908;-77
2022/10/09 11:11:49;;;;;;;;;;;15.50;99.90;;;;;;5095575;28;19970;-77
2022/10/09 11:14:21;;;;;;;;;;;15.60;99.90;;;;;;5095894;28;19953;-77
2022/10/09 11:16:56;;;;;;;;;;;15.60;99.90;;;;;;5095964;28;19916;-76
2022/10/09 11:19:21;;;;;;;;;;;15.60;99.90;;;;;;5095162;28;20314;-76
2022/10/09 11:21:59;;;;;;;;;;;15.60;99.90;;;;;;5094614;28;19915;-76
2022/10/09 11:24:38;;;;;;;;;;;15.50;99.90;;;;;;5095447;28;19953;-77
2022/10/09 11:27:09;;;;;;;;;;;15.50;99.90;;;;;;5095719;28;19908;-76
2022/10/09 11:29:46;;;;;;;;;;;15.40;99.90;;;;;;5094804;28;20350;-77
2022/10/09 11:32:18;;;;;;;;;;;15.40;99.90;;;;;;5095346;28;19962;-76
2022/10/09 11:34:45;;;;;;;;;;;15.40;99.90;;;;;;5095223;28;19908;-76
2022/10/09 11:37:15;;;;;;;;;;;15.40;99.90;;;;;;5094374;28;19931;-77
2022/10/09 11:39:41;;;;;;;;;;;15.40;99.90;;;;;;5094674;28;20076;-76
2022/10/09 11:42:09;;;;;;;;;;;15.30;99.90;;;;;;5095543;28;19912;-76
2022/10/09 11:44:37;;;;;;;;;;;15.30;99.90;;;;;;5094861;28;20016;-75
2022/10/09 11:47:08;;;;;;;;;;;15.30;99.90;;;;;;5095186;28;20409;-75
2022/10/09 11:49:37;;;;;;;;;;;15.20;99.90;;;;;;5094835;28;19908;-75
2022/10/09 11:52:13;;;;;;;;;;;15.10;99.90;;;;;;5095050;28;19919;-78
2022/10/09 11:54:39;;;;;;;;;;;15.10;99.90;;;;;;5094730;28;19908;-79
2022/10/09 11:57:05;;;;;;;;;;;15.00;99.90;;;;;;5095252;28;19908;-79
2022/10/09 11:59:35;;;;;;;;;;;14.90;99.90;;;;;;5094347;28;19908;-79
2022/10/09 12:02:15;;;;;;;;;;;14.90;99.90;;;;;;5094881;28;19912;-79
2022/10/09 12:04:41;;;;;;;;;;;14.80;99.90;;;;;;5094074;28;20035;-78
2022/10/09 12:07:08;;;;;;;;;;;14.70;99.90;;;;;;5094670;28;19991;-79
2022/10/09 12:09:38;;;;;;;;;;;14.70;99.90;;;;;;5093891;28;19943;-79
2022/10/09 12:12:06;;;;;;;;;;;14.70;99.90;;;;;;5094381;28;20007;-77
2022/10/09 12:14:32;;;;;;;;;;;14.60;99.90;;;;;;5093718;28;19908;-76
2022/10/09 12:16:58;;;;;;;;;;;14.70;99.90;;;;;;5094209;28;19916;-76
2022/10/09 12:19:26;;;;;;;;;;;14.70;99.90;;;;;;5094120;28;20379;-76
2022/10/09 12:22:03;;;;;;;;;;;14.70;99.90;;;;;;5094567;28;19954;-76
2022/10/09 12:24:43;;;;;;;;;;;14.70;99.90;;;;;;5093816;28;20391;-76
2022/10/09 12:27:23;;;;;;;;;;;14.70;99.90;;;;;;5094781;28;19999;-76
2022/10/09 12:29:56;;;;;;;;;;;14.70;99.90;;;;;;5094007;28;19961;-76
2022/10/09 12:32:27;;;;;;;;;;;14.70;99.90;;;;;;5094514;28;19912;-76
2022/10/09 12:34:54;;;;;;;;;;;14.70;99.90;;;;;;5094750;28;19951;-77
2022/10/09 12:37:21;;;;;;;;;;;14.70;99.90;;;;;;5094194;28;19908;-77
2022/10/09 12:39:47;;;;;;;;;;;14.70;99.90;;;;;;5093922;28;19999;-77
2022/10/09 12:42:19;;;;;;;;;;;14.70;99.90;;;;;;5094002;28;19920;-76
2022/10/09 12:44:45;;;;;;;;;;;14.80;99.90;;;;;;5093786;28;19924;-76
2022/10/09 12:47:15;;;;;;;;;;;14.90;99.90;;;;;;5094062;28;19976;-76
2022/10/09 12:49:40;;;;;;;;;;;14.90;99.90;;;;;;5093323;28;19915;-76
2022/10/09 12:52:13;;;;;;;;;;;14.90;99.90;;;;;;5093290;28;20299;-76
2022/10/09 12:54:40;;;;;;;;;;;15.00;99.90;;;;;;5093566;28;19919;-77
2022/10/09 12:57:11;;;;;;;;;;;15.10;99.90;;;;;;5094269;28;19977;-76
2022/10/09 12:59:37;;;;;;;;;;;15.10;99.90;;;;;;5093548;28;19931;-77
2022/10/09 13:02:02;;;;;;;;;;;15.10;99.90;;;;;;5092732;28;20353;-77
2022/10/09 13:04:29;;;;;;;;;;;15.10;99.90;;;;;;5092094;28;19918;-76
2022/10/09 13:06:56;;;;;;;;;;;15.10;99.90;;;;;;5093805;28;19948;-75
2022/10/09 13:09:25;;;;;;;;;;;15.10;99.90;;;;;;5093450;28;20396;-78
2022/10/09 13:12:03;;;;;;;;;;;15.10;99.90;;;;;;5093460;28;19920;-77
2022/10/09 13:14:31;;;;;;;;;;;15.10;99.90;;;;;;5093366;28;19955;-76
2022/10/09 13:16:57;;;;;;;;;;;15.20;99.90;;;;;;5093658;28;19955;-77
2022/10/09 13:19:26;;;;;;;;;;;15.20;99.90;;;;;;5092226;28;19974;-77
2022/10/09 13:22:16;;;;;;;;;;;15.30;99.90;;;;;;5093016;28;19912;-76
2022/10/09 13:24:42;;;;;;;;;;;15.40;99.90;;;;;;5094188;28;19916;-76
2022/10/09 13:27:09;;;;;;;;;;;15.40;99.90;;;;;;5093392;28;20021;-77
2022/10/09 13:29:34;;;;;;;;;;;15.50;99.90;;;;;;5091462;28;19999;-75
2022/10/09 13:32:01;;;;;;;;;;;15.50;99.90;;;;;;5093215;28;19947;-75
2022/10/09 13:34:27;;;;;;;;;;;15.60;99.90;;;;;;5093307;28;19915;-75
2022/10/09 13:36:53;;;;;;;;;;;15.60;99.90;;;;;;5092979;28;20277;-75
2022/10/09 13:39:19;;;;;;;;;;;15.60;99.90;;;;;;5093246;28;19915;-76
2022/10/09 13:41:45;;;;;;;;;;;15.60;99.90;;;;;;5092451;28;19908;-75
2022/10/09 13:44:10;;;;;;;;;;;15.60;99.90;;;;;;5092246;28;19972;-77
2022/10/09 13:46:36;;;;;;;;;;;15.60;99.90;;;;;;5092969;28;20280;-75
2022/10/09 13:49:01;;;;;;;;;;;15.50;99.90;;;;;;5092702;28;19998;-76
2022/10/09 13:51:28;;;;;;;;;;;15.40;99.90;;;;;;5092616;28;19919;-79
2022/10/09 13:53:53;;;;;;;;;;;15.30;99.90;;;;;;5091793;28;19920;-76
2022/10/09 13:56:19;;;;;;;;;;;15.20;99.90;;;;;;5092154;28;19916;-78
2022/10/09 13:58:44;;;;;;;;;;;15.10;99.90;;;;;;5090847;28;19914;-77
2022/10/09 14:01:10;;;;;;;;;;;15.10;99.90;;;;;;5091299;28;20356;-77
2022/10/09 14:03:35;;;;;;;;;;;15.00;99.90;;;;;;5091816;28;19915;-78
2022/10/09 14:06:04;;;;;;;;;;;14.90;99.90;;;;;;5091772;28;20242;-79
2022/10/09 14:08:30;;;;;;;;;;;14.80;99.90;;;;;;5091947;28;19959;-80
2022/10/09 14:10:58;;;;;;;;;;;14.80;99.90;;;;;;5092195;28;20381;-78
2022/10/09 14:13:23;;;;;;;;;;;14.70;99.90;;;;;;5090972;28;19970;-77
2022/10/09 14:15:50;;;;;;;;;;;14.70;99.90;;;;;;5090822;28;19908;-77
2022/10/09 14:18:16;;;;;;;;;;;14.70;99.90;;;;;;5090958;28;20361;-77
2022/10/09 14:20:41;;;;;;;;;;;14.60;99.90;;;;;;5091449;28;19920;-76